sensor_id;sensor_type;location;lat;lon;timestamp;temperature;humidity
44166;DHT22;30476;53.468;9.826;2022-09-12T00:01:14;14.30;97.70
44166;DHT22;30476;53.468;9.826;2022-09-12T00:03:40;14.30;97.80
44166;DHT22;30476;53.468;9.826;2022-09-12T00:06:28;14.30;97.80
44166;DHT22;30476;53.468;9.826;2022-09-12T00:08:56;14.30;97.90
44166;DHT22;30476;53.468;9.826;2022-09-12T00:11:22;14.30;98.00
44166;DHT22;30476;53.468;9.826;2022-09-12T00:13:49;14.20;98.10
44166;DHT22;30476;53.468;9.826;2022-09-12T00:16:20;14.20;98.20
44166;DHT22;30476;53.468;9.826;2022-09-12T00:18:47;14.20;98.20
44166;DHT22;30476;53.468;9.826;2022-09-12T00:21:13;14.20;98.20
44166;DHT22;30476;53.468;9.826;2022-09-12T00:23:39;14.20;98.10
44166;DHT22;30476;53.468;9.826;2022-09-12T00:26:05;14.20;98.10
44166;DHT22;30476;53.468;9.826;2022-09-12T00:28:33;14.10;98.00
44166;DHT22;30476;53.468;9.826;2022-09-12T00:31:03;14.10;98.10
44166;DHT22;30476;53.468;9.826;2022-09-12T00:33:30;14.10;98.00
44166;DHT22;30476;53.468;9.826;2022-09-12T00:35:56;14.00;98.00
44166;DHT22;30476;53.468;9.826;2022-09-12T00:38:22;14.00;98.00
44166;DHT22;30476;53.468;9.826;2022-09-12T00:40:48;14.00;98.00
44166;DHT22;30476;53.468;9.826;2022-09-12T00:46:01;13.90;97.80
44166;DHT22;30476;53.468;9.826;2022-09-12T00:48:35;13.90;97.80
44166;DHT22;30476;53.468;9.826;2022-09-12T00:51:04;14.00;97.90
44166;DHT22;30476;53.468;9.826;2022-09-12T00:53:30;13.90;97.80
44166;DHT22;30476;53.468;9.826;2022-09-12T00:55:56;13.90;98.10
44166;DHT22;30476;53.468;9.826;2022-09-12T00:58:39;13.90;98.10
44166;DHT22;30476;53.468;9.826;2022-09-12T01:01:07;13.90;98.00
44166;DHT22;30476;53.468;9.826;2022-09-12T01:03:33;13.80;98.00
44166;DHT22;30476;53.468;9.826;2022-09-12T01:06:14;13.80;98.10
44166;DHT22;30476;53.468;9.826;2022-09-12T01:08:42;13.80;98.20
44166;DHT22;30476;53.468;9.826;2022-09-12T01:11:08;13.80;98.30
44166;DHT22;30476;53.468;9.826;2022-09-12T01:13:35;13.70;98.20
44166;DHT22;30476;53.468;9.826;2022-09-12T01:16:05;13.70;98.20
44166;DHT22;30476;53.468;9.826;2022-09-12T01:21:13;13.70;98.10
44166;DHT22;30476;53.468;9.826;2022-09-12T01:26:58;13.70;98.00
44166;DHT22;30476;53.468;9.826;2022-09-12T01:29:50;13.70;98.00
44166;DHT22;30476;53.468;9.826;2022-09-12T01:32:21;13.70;98.20
44166;DHT22;30476;53.468;9.826;2022-09-12T01:40:47;13.60;98.30
44166;DHT22;30476;53.468;9.826;2022-09-12T01:43:34;13.50;98.30
44166;DHT22;30476;53.468;9.826;2022-09-12T01:46:06;13.50;98.30
44166;DHT22;30476;53.468;9.826;2022-09-12T01:48:38;13.50;98.40
44166;DHT22;30476;53.468;9.826;2022-09-12T01:51:15;13.50;98.50
44166;DHT22;30476;53.468;9.826;2022-09-12T01:53:53;13.50;98.50
44166;DHT22;30476;53.468;9.826;2022-09-12T01:56:26;13.50;98.60
44166;DHT22;30476;53.468;9.826;2022-09-12T01:59:02;13.40;98.40
44166;DHT22;30476;53.468;9.826;2022-09-12T02:01:41;13.40;98.10
44166;DHT22;30476;53.468;9.826;2022-09-12T02:04:14;13.50;98.20
44166;DHT22;30476;53.468;9.826;2022-09-12T02:06:48;13.40;98.20
44166;DHT22;30476;53.468;9.826;2022-09-12T02:09:23;13.50;98.30
44166;DHT22;30476;53.468;9.826;2022-09-12T02:11:54;13.40;98.20
44166;DHT22;30476;53.468;9.826;2022-09-12T02:14:33;13.40;98.20
44166;DHT22;30476;53.468;9.826;2022-09-12T02:17:12;13.30;98.30
44166;DHT22;30476;53.468;9.826;2022-09-12T02:19:43;13.30;98.30
44166;DHT22;30476;53.468;9.826;2022-09-12T02:22:14;13.30;98.40
44166;DHT22;30476;53.468;9.826;2022-09-12T02:24:45;13.30;98.40
44166;DHT22;30476;53.468;9.826;2022-09-12T02:29:40;13.20;98.50
44166;DHT22;30476;53.468;9.826;2022-09-12T02:32:28;13.20;98.50
44166;DHT22;30476;53.468;9.826;2022-09-12T02:34:59;13.20;98.60
44166;DHT22;30476;53.468;9.826;2022-09-12T02:40:17;13.10;98.60
44166;DHT22;30476;53.468;9.826;2022-09-12T02:42:43;13.10;98.60
44166;DHT22;30476;53.468;9.826;2022-09-12T02:45:10;13.10;98.60
44166;DHT22;30476;53.468;9.826;2022-09-12T02:47:47;13.10;98.70
44166;DHT22;30476;53.468;9.826;2022-09-12T02:50:14;13.10;98.70
44166;DHT22;30476;53.468;9.826;2022-09-12T02:52:40;13.00;98.70
44166;DHT22;30476;53.468;9.826;2022-09-12T02:55:07;13.00;98.70
44166;DHT22;30476;53.468;9.826;2022-09-12T02:57:36;13.00;98.70
44166;DHT22;30476;53.468;9.826;2022-09-12T03:00:03;13.00;98.70
44166;DHT22;30476;53.468;9.826;2022-09-12T03:02:56;13.00;98.60
44166;DHT22;30476;53.468;9.826;2022-09-12T03:05:31;13.00;98.50
44166;DHT22;30476;53.468;9.826;2022-09-12T03:13:39;13.00;98.30
44166;DHT22;30476;53.468;9.826;2022-09-12T03:16:20;13.00;98.40
44166;DHT22;30476;53.468;9.826;2022-09-12T03:18:50;13.00;98.50
44166;DHT22;30476;53.468;9.826;2022-09-12T03:21:44;13.00;98.50
44166;DHT22;30476;53.468;9.826;2022-09-12T03:24:19;13.00;98.50
44166;DHT22;30476;53.468;9.826;2022-09-12T03:27:08;13.00;98.50
44166;DHT22;30476;53.468;9.826;2022-09-12T03:29:37;13.00;98.60
44166;DHT22;30476;53.468;9.826;2022-09-12T03:32:04;13.00;98.60
44166;DHT22;30476;53.468;9.826;2022-09-12T03:34:30;12.90;98.50
44166;DHT22;30476;53.468;9.826;2022-09-12T03:36:56;12.90;98.50
44166;DHT22;30476;53.468;9.826;2022-09-12T03:39:22;12.90;98.40
44166;DHT22;30476;53.468;9.826;2022-09-12T03:41:49;12.90;98.50
44166;DHT22;30476;53.468;9.826;2022-09-12T03:44:16;12.90;98.60
44166;DHT22;30476;53.468;9.826;2022-09-12T03:46:42;12.90;98.70
44166;DHT22;30476;53.468;9.826;2022-09-12T03:49:08;12.80;98.80
44166;DHT22;30476;53.468;9.826;2022-09-12T03:51:35;12.80;98.80
44166;DHT22;30476;53.468;9.826;2022-09-12T03:54:02;12.80;98.70
44166;DHT22;30476;53.468;9.826;2022-09-12T03:56:28;12.80;98.70
44166;DHT22;30476;53.468;9.826;2022-09-12T03:58:54;12.80;98.70
44166;DHT22;30476;53.468;9.826;2022-09-12T04:01:20;12.70;98.70
44166;DHT22;30476;53.468;9.826;2022-09-12T04:03:49;12.70;98.70
44166;DHT22;30476;53.468;9.826;2022-09-12T04:06:18;12.70;98.70
44166;DHT22;30476;53.468;9.826;2022-09-12T04:08:47;12.70;98.70
44166;DHT22;30476;53.468;9.826;2022-09-12T04:11:16;12.70;98.70
44166;DHT22;30476;53.468;9.826;2022-09-12T04:13:43;12.70;98.70
44166;DHT22;30476;53.468;9.826;2022-09-12T04:16:09;12.60;98.70
44166;DHT22;30476;53.468;9.826;2022-09-12T04:18:35;12.60;98.70
44166;DHT22;30476;53.468;9.826;2022-09-12T04:21:10;12.60;98.70
44166;DHT22;30476;53.468;9.826;2022-09-12T04:23:37;12.60;98.70
44166;DHT22;30476;53.468;9.826;2022-09-12T04:26:05;12.60;98.70
44166;DHT22;30476;53.468;9.826;2022-09-12T04:28:31;12.60;98.80
44166;DHT22;30476;53.468;9.826;2022-09-12T04:31:01;12.60;98.80
44166;DHT22;30476;53.468;9.826;2022-09-12T04:33:28;12.60;98.80
44166;DHT22;30476;53.468;9.826;2022-09-12T04:35:54;12.60;98.90
44166;DHT22;30476;53.468;9.826;2022-09-12T04:38:19;12.50;98.90
44166;DHT22;30476;53.468;9.826;2022-09-12T04:40:45;12.50;98.90
44166;DHT22;30476;53.468;9.826;2022-09-12T04:43:12;12.50;98.80
44166;DHT22;30476;53.468;9.826;2022-09-12T04:45:38;12.50;98.80
44166;DHT22;30476;53.468;9.826;2022-09-12T04:48:03;12.50;98.70
44166;DHT22;30476;53.468;9.826;2022-09-12T04:50:29;12.50;98.70
44166;DHT22;30476;53.468;9.826;2022-09-12T04:52:55;12.50;98.80
44166;DHT22;30476;53.468;9.826;2022-09-12T04:55:21;12.50;98.70
44166;DHT22;30476;53.468;9.826;2022-09-12T04:57:47;12.50;98.80
44166;DHT22;30476;53.468;9.826;2022-09-12T05:00:13;12.40;98.70
44166;DHT22;30476;53.468;9.826;2022-09-12T05:02:40;12.40;98.80
44166;DHT22;30476;53.468;9.826;2022-09-12T05:05:07;12.50;98.90
44166;DHT22;30476;53.468;9.826;2022-09-12T05:07:33;12.50;98.90
44166;DHT22;30476;53.468;9.826;2022-09-12T05:10:00;12.50;99.00
44166;DHT22;30476;53.468;9.826;2022-09-12T05:12:26;12.50;99.00
44166;DHT22;30476;53.468;9.826;2022-09-12T05:14:52;12.40;99.00
44166;DHT22;30476;53.468;9.826;2022-09-12T05:17:18;12.50;99.10
44166;DHT22;30476;53.468;9.826;2022-09-12T05:19:44;12.50;99.50
44166;DHT22;30476;53.468;9.826;2022-09-12T05:22:10;12.50;99.30
44166;DHT22;30476;53.468;9.826;2022-09-12T05:24:35;12.40;99.40
44166;DHT22;30476;53.468;9.826;2022-09-12T05:27:04;12.40;99.50
44166;DHT22;30476;53.468;9.826;2022-09-12T05:29:30;12.40;99.50
44166;DHT22;30476;53.468;9.826;2022-09-12T05:31:56;12.40;99.60
44166;DHT22;30476;53.468;9.826;2022-09-12T05:34:22;12.40;99.80
44166;DHT22;30476;53.468;9.826;2022-09-12T05:36:48;12.40;99.90
44166;DHT22;30476;53.468;9.826;2022-09-12T05:39:14;12.40;99.90
44166;DHT22;30476;53.468;9.826;2022-09-12T05:41:40;12.40;99.90
44166;DHT22;30476;53.468;9.826;2022-09-12T05:44:10;12.40;99.90
44166;DHT22;30476;53.468;9.826;2022-09-12T05:46:38;12.40;99.90
44166;DHT22;30476;53.468;9.826;2022-09-12T05:49:05;12.40;99.90
44166;DHT22;30476;53.468;9.826;2022-09-12T05:51:34;12.40;99.90
44166;DHT22;30476;53.468;9.826;2022-09-12T05:54:04;12.50;99.90
44166;DHT22;30476;53.468;9.826;2022-09-12T05:56:32;12.50;99.90
44166;DHT22;30476;53.468;9.826;2022-09-12T05:59:01;12.50;99.90
44166;DHT22;30476;53.468;9.826;2022-09-12T06:01:28;12.50;99.90
44166;DHT22;30476;53.468;9.826;2022-09-12T06:03:56;12.60;99.90
44166;DHT22;30476;53.468;9.826;2022-09-12T06:06:23;12.60;99.90
44166;DHT22;30476;53.468;9.826;2022-09-12T06:08:52;12.70;99.90
44166;DHT22;30476;53.468;9.826;2022-09-12T06:11:20;12.70;99.90
44166;DHT22;30476;53.468;9.826;2022-09-12T06:13:47;12.70;99.90
44166;DHT22;30476;53.468;9.826;2022-09-12T06:16:18;12.80;99.90
44166;DHT22;30476;53.468;9.826;2022-09-12T06:18:50;12.90;99.90
44166;DHT22;30476;53.468;9.826;2022-09-12T06:21:16;12.90;99.90
44166;DHT22;30476;53.468;9.826;2022-09-12T06:23:43;13.00;99.90
44166;DHT22;30476;53.468;9.826;2022-09-12T06:26:11;13.10;99.90
44166;DHT22;30476;53.468;9.826;2022-09-12T06:28:39;13.20;99.90
44166;DHT22;30476;53.468;9.826;2022-09-12T06:31:07;13.30;99.90
44166;DHT22;30476;53.468;9.826;2022-09-12T06:33:36;13.40;99.90
44166;DHT22;30476;53.468;9.826;2022-09-12T06:38:32;13.50;99.90
44166;DHT22;30476;53.468;9.826;2022-09-12T06:40:58;13.70;99.90
44166;DHT22;30476;53.468;9.826;2022-09-12T06:43:27;13.80;99.90
44166;DHT22;30476;53.468;9.826;2022-09-12T06:45:53;13.90;99.90
44166;DHT22;30476;53.468;9.826;2022-09-12T06:48:18;14.00;99.90
44166;DHT22;30476;53.468;9.826;2022-09-12T06:50:58;14.10;99.90
44166;DHT22;30476;53.468;9.826;2022-09-12T06:53:25;14.20;99.90
44166;DHT22;30476;53.468;9.826;2022-09-12T06:55:58;14.40;99.90
44166;DHT22;30476;53.468;9.826;2022-09-12T06:58:25;14.50;99.90
44166;DHT22;30476;53.468;9.826;2022-09-12T07:00:52;14.60;99.90
44166;DHT22;30476;53.468;9.826;2022-09-12T07:03:18;14.80;99.90
44166;DHT22;30476;53.468;9.826;2022-09-12T07:05:45;14.90;99.90
44166;DHT22;30476;53.468;9.826;2022-09-12T07:08:11;15.00;99.90
44166;DHT22;30476;53.468;9.826;2022-09-12T07:10:36;15.20;99.90
44166;DHT22;30476;53.468;9.826;2022-09-12T07:13:02;15.30;99.90
44166;DHT22;30476;53.468;9.826;2022-09-12T07:15:28;15.50;99.90
44166;DHT22;30476;53.468;9.826;2022-09-12T07:17:54;15.60;99.90
44166;DHT22;30476;53.468;9.826;2022-09-12T07:20:20;15.80;99.90
44166;DHT22;30476;53.468;9.826;2022-09-12T07:22:46;15.90;99.90
44166;DHT22;30476;53.468;9.826;2022-09-12T07:25:12;16.10;99.90
44166;DHT22;30476;53.468;9.826;2022-09-12T07:27:38;16.20;99.90
44166;DHT22;30476;53.468;9.826;2022-09-12T07:30:05;16.30;99.90
44166;DHT22;30476;53.468;9.826;2022-09-12T07:32:32;16.50;99.90
44166;DHT22;30476;53.468;9.826;2022-09-12T07:34:58;16.60;99.90
44166;DHT22;30476;53.468;9.826;2022-09-12T07:37:24;16.80;99.90
44166;DHT22;30476;53.468;9.826;2022-09-12T07:39:50;16.90;99.90
44166;DHT22;30476;53.468;9.826;2022-09-12T07:42:16;17.10;99.90
44166;DHT22;30476;53.468;9.826;2022-09-12T07:44:42;17.20;99.90
44166;DHT22;30476;53.468;9.826;2022-09-12T07:47:08;17.30;99.90
44166;DHT22;30476;53.468;9.826;2022-09-12T07:49:34;17.40;99.90
44166;DHT22;30476;53.468;9.826;2022-09-12T07:52:00;17.60;99.90
44166;DHT22;30476;53.468;9.826;2022-09-12T07:54:26;17.70;99.90
44166;DHT22;30476;53.468;9.826;2022-09-12T07:56:52;17.80;99.90
44166;DHT22;30476;53.468;9.826;2022-09-12T07:59:18;17.80;99.90
44166;DHT22;30476;53.468;9.826;2022-09-12T08:01:44;18.00;99.90
44166;DHT22;30476;53.468;9.826;2022-09-12T08:04:10;18.10;99.90
44166;DHT22;30476;53.468;9.826;2022-09-12T08:06:36;18.20;99.90
44166;DHT22;30476;53.468;9.826;2022-09-12T08:09:03;18.30;99.90
44166;DHT22;30476;53.468;9.826;2022-09-12T08:11:29;18.50;99.90
44166;DHT22;30476;53.468;9.826;2022-09-12T08:13:56;18.70;99.90
44166;DHT22;30476;53.468;9.826;2022-09-12T08:16:24;18.80;99.90
44166;DHT22;30476;53.468;9.826;2022-09-12T08:18:51;18.90;99.90
44166;DHT22;30476;53.468;9.826;2022-09-12T08:21:20;19.00;99.80
44166;DHT22;30476;53.468;9.826;2022-09-12T08:23:46;19.20;99.60
44166;DHT22;30476;53.468;9.826;2022-09-12T08:26:13;19.30;99.40
44166;DHT22;30476;53.468;9.826;2022-09-12T08:28:39;19.40;99.20
44166;DHT22;30476;53.468;9.826;2022-09-12T08:31:12;19.50;98.70
44166;DHT22;30476;53.468;9.826;2022-09-12T08:33:38;19.60;98.30
44166;DHT22;30476;53.468;9.826;2022-09-12T08:36:05;19.70;98.10
44166;DHT22;30476;53.468;9.826;2022-09-12T08:38:32;19.80;97.70
44166;DHT22;30476;53.468;9.826;2022-09-12T08:41:08;19.90;97.70
44166;DHT22;30476;53.468;9.826;2022-09-12T08:49:12;20.20;96.90
44166;DHT22;30476;53.468;9.826;2022-09-12T08:51:40;20.30;96.50
44166;DHT22;30476;53.468;9.826;2022-09-12T08:54:33;20.40;96.10
44166;DHT22;30476;53.468;9.826;2022-09-12T08:57:02;20.50;96.00
44166;DHT22;30476;53.468;9.826;2022-09-12T08:59:45;20.60;96.00
44166;DHT22;30476;53.468;9.826;2022-09-12T09:05:20;20.80;95.10
44166;DHT22;30476;53.468;9.826;2022-09-12T09:10:47;21.00;94.50
44166;DHT22;30476;53.468;9.826;2022-09-12T09:16:30;21.10;94.20
44166;DHT22;30476;53.468;9.826;2022-09-12T09:19:04;21.20;93.00
44166;DHT22;30476;53.468;9.826;2022-09-12T09:21:36;21.20;93.00
44166;DHT22;30476;53.468;9.826;2022-09-12T09:24:10;21.30;93.50
44166;DHT22;30476;53.468;9.826;2022-09-12T09:26:45;21.40;92.30
44166;DHT22;30476;53.468;9.826;2022-09-12T09:29:19;21.40;91.70
44166;DHT22;30476;53.468;9.826;2022-09-12T09:31:51;21.50;91.90
44166;DHT22;30476;53.468;9.826;2022-09-12T09:34:18;21.60;92.00
44166;DHT22;30476;53.468;9.826;2022-09-12T09:39:23;21.70;92.10
44166;DHT22;30476;53.468;9.826;2022-09-12T09:42:27;21.80;92.00
44166;DHT22;30476;53.468;9.826;2022-09-12T09:44:58;21.90;92.00
44166;DHT22;30476;53.468;9.826;2022-09-12T09:47:24;21.90;91.50
44166;DHT22;30476;53.468;9.826;2022-09-12T09:49:50;22.00;91.30
44166;DHT22;30476;53.468;9.826;2022-09-12T09:52:23;22.00;91.20
44166;DHT22;30476;53.468;9.826;2022-09-12T09:54:54;22.10;91.40
44166;DHT22;30476;53.468;9.826;2022-09-12T10:05:46;22.30;90.60
44166;DHT22;30476;53.468;9.826;2022-09-12T10:08:23;22.30;90.70
44166;DHT22;30476;53.468;9.826;2022-09-12T10:13:34;22.50;90.40
44166;DHT22;30476;53.468;9.826;2022-09-12T10:16:04;22.50;90.40
44166;DHT22;30476;53.468;9.826;2022-09-12T10:18:40;22.60;90.70
44166;DHT22;30476;53.468;9.826;2022-09-12T10:21:21;22.60;90.10
44166;DHT22;30476;53.468;9.826;2022-09-12T10:23:56;22.60;90.50
44166;DHT22;30476;53.468;9.826;2022-09-12T10:26:25;22.70;90.60
44166;DHT22;30476;53.468;9.826;2022-09-12T10:28:53;22.70;90.10
44166;DHT22;30476;53.468;9.826;2022-09-12T10:31:26;22.70;90.20
44166;DHT22;30476;53.468;9.826;2022-09-12T10:33:55;22.80;90.60
44166;DHT22;30476;53.468;9.826;2022-09-12T10:36:22;22.80;90.00
44166;DHT22;30476;53.468;9.826;2022-09-12T10:38:54;23.00;89.20
44166;DHT22;30476;53.468;9.826;2022-09-12T10:41:20;23.10;90.00
44166;DHT22;30476;53.468;9.826;2022-09-12T10:43:47;23.10;90.10
44166;DHT22;30476;53.468;9.826;2022-09-12T10:46:22;23.20;89.70
44166;DHT22;30476;53.468;9.826;2022-09-12T10:48:49;23.30;90.00
44166;DHT22;30476;53.468;9.826;2022-09-12T10:53:58;23.40;90.10
44166;DHT22;30476;53.468;9.826;2022-09-12T10:56:31;23.40;88.50
44166;DHT22;30476;53.468;9.826;2022-09-12T10:59:24;23.50;88.70
44166;DHT22;30476;53.468;9.826;2022-09-12T11:02:01;23.60;87.50
44166;DHT22;30476;53.468;9.826;2022-09-12T11:04:47;23.60;87.10
44166;DHT22;30476;53.468;9.826;2022-09-12T11:07:37;23.70;87.60
44166;DHT22;30476;53.468;9.826;2022-09-12T11:18:24;24.00;87.70
44166;DHT22;30476;53.468;9.826;2022-09-12T11:21:29;24.10;87.40
44166;DHT22;30476;53.468;9.826;2022-09-12T11:24:20;24.10;84.50
44166;DHT22;30476;53.468;9.826;2022-09-12T11:26:59;24.20;85.00
44166;DHT22;30476;53.468;9.826;2022-09-12T11:30:03;24.20;85.70
44166;DHT22;30476;53.468;9.826;2022-09-12T11:35:34;24.20;84.80
44166;DHT22;30476;53.468;9.826;2022-09-12T11:38:19;24.30;84.70
44166;DHT22;30476;53.468;9.826;2022-09-12T11:40:57;24.30;84.40
44166;DHT22;30476;53.468;9.826;2022-09-12T11:43:40;24.30;83.50
44166;DHT22;30476;53.468;9.826;2022-09-12T11:57:17;24.40;83.50
44166;DHT22;30476;53.468;9.826;2022-09-12T12:00:05;24.40;83.10
44166;DHT22;30476;53.468;9.826;2022-09-12T12:05:50;24.50;84.70
44166;DHT22;30476;53.468;9.826;2022-09-12T12:08:20;24.50;83.10
44166;DHT22;30476;53.468;9.826;2022-09-12T12:10:50;24.60;83.00
44166;DHT22;30476;53.468;9.826;2022-09-12T12:13:33;24.60;82.20
44166;DHT22;30476;53.468;9.826;2022-09-12T12:16:13;24.60;82.10
44166;DHT22;30476;53.468;9.826;2022-09-12T12:18:41;24.70;81.90
44166;DHT22;30476;53.468;9.826;2022-09-12T12:24:24;24.70;80.60
44166;DHT22;30476;53.468;9.826;2022-09-12T12:26:57;24.70;80.20
44166;DHT22;30476;53.468;9.826;2022-09-12T12:29:41;24.60;79.90
44166;DHT22;30476;53.468;9.826;2022-09-12T12:40:08;24.40;81.00
44166;DHT22;30476;53.468;9.826;2022-09-12T12:48:08;24.40;81.60
44166;DHT22;30476;53.468;9.826;2022-09-12T12:50:34;24.40;80.90
44166;DHT22;30476;53.468;9.826;2022-09-12T12:55:37;24.40;81.80
44166;DHT22;30476;53.468;9.826;2022-09-12T12:58:27;24.40;82.40
44166;DHT22;30476;53.468;9.826;2022-09-12T13:03:42;24.40;82.00
44166;DHT22;30476;53.468;9.826;2022-09-12T13:06:40;24.40;81.20
44166;DHT22;30476;53.468;9.826;2022-09-12T13:09:31;24.40;81.70
44166;DHT22;30476;53.468;9.826;2022-09-12T13:12:01;24.40;81.60
44166;DHT22;30476;53.468;9.826;2022-09-12T13:14:47;24.50;81.60
44166;DHT22;30476;53.468;9.826;2022-09-12T13:17:18;24.50;81.60
44166;DHT22;30476;53.468;9.826;2022-09-12T13:19:47;24.60;82.10
44166;DHT22;30476;53.468;9.826;2022-09-12T13:22:14;24.70;82.60
44166;DHT22;30476;53.468;9.826;2022-09-12T13:24:45;24.70;83.10
44166;DHT22;30476;53.468;9.826;2022-09-12T13:27:25;24.80;80.70
44166;DHT22;30476;53.468;9.826;2022-09-12T13:30:08;24.90;81.20
44166;DHT22;30476;53.468;9.826;2022-09-12T13:32:38;24.90;81.20
44166;DHT22;30476;53.468;9.826;2022-09-12T13:35:20;25.00;80.40
44166;DHT22;30476;53.468;9.826;2022-09-12T13:40:36;25.10;79.50
44166;DHT22;30476;53.468;9.826;2022-09-12T13:43:11;25.10;80.80
44166;DHT22;30476;53.468;9.826;2022-09-12T13:45:40;25.00;80.40
44166;DHT22;30476;53.468;9.826;2022-09-12T13:48:20;25.00;79.20
44166;DHT22;30476;53.468;9.826;2022-09-12T13:50:56;25.00;78.30
44166;DHT22;30476;53.468;9.826;2022-09-12T13:53:26;25.00;78.40
44166;DHT22;30476;53.468;9.826;2022-09-12T13:55:58;25.00;78.30
44166;DHT22;30476;53.468;9.826;2022-09-12T13:58:31;25.00;77.20
44166;DHT22;30476;53.468;9.826;2022-09-12T14:03:29;25.00;76.90
44166;DHT22;30476;53.468;9.826;2022-09-12T14:06:13;24.90;77.20
44166;DHT22;30476;53.468;9.826;2022-09-12T14:08:41;24.90;78.50
44166;DHT22;30476;53.468;9.826;2022-09-12T14:11:09;24.90;79.30
44166;DHT22;30476;53.468;9.826;2022-09-12T14:13:36;24.90;79.00
44166;DHT22;30476;53.468;9.826;2022-09-12T14:16:04;25.00;79.00
44166;DHT22;30476;53.468;9.826;2022-09-12T14:18:36;25.00;78.20
44166;DHT22;30476;53.468;9.826;2022-09-12T14:21:09;25.10;78.30
44166;DHT22;30476;53.468;9.826;2022-09-12T14:23:39;25.20;77.70
44166;DHT22;30476;53.468;9.826;2022-09-12T14:26:09;25.20;78.90
44166;DHT22;30476;53.468;9.826;2022-09-12T14:28:39;25.20;78.90
44166;DHT22;30476;53.468;9.826;2022-09-12T14:31:36;25.20;77.30
44166;DHT22;30476;53.468;9.826;2022-09-12T14:34:16;25.20;77.50
44166;DHT22;30476;53.468;9.826;2022-09-12T14:36:49;25.20;77.60
44166;DHT22;30476;53.468;9.826;2022-09-12T14:39:32;25.20;77.00
44166;DHT22;30476;53.468;9.826;2022-09-12T14:42:21;25.10;77.40
44166;DHT22;30476;53.468;9.826;2022-09-12T14:45:03;25.00;76.10
44166;DHT22;30476;53.468;9.826;2022-09-12T14:47:40;25.00;76.90
44166;DHT22;30476;53.468;9.826;2022-09-12T14:50:17;25.00;77.60
44166;DHT22;30476;53.468;9.826;2022-09-12T14:52:45;24.90;77.40
44166;DHT22;30476;53.468;9.826;2022-09-12T14:57:41;24.80;77.50
44166;DHT22;30476;53.468;9.826;2022-09-12T15:02:44;24.70;77.70
44166;DHT22;30476;53.468;9.826;2022-09-12T15:08:12;24.60;78.00
44166;DHT22;30476;53.468;9.826;2022-09-12T15:10:33;24.60;78.30
44166;DHT22;30476;53.468;9.826;2022-09-12T15:13:19;24.50;78.30
44166;DHT22;30476;53.468;9.826;2022-09-12T15:15:51;24.40;78.60
44166;DHT22;30476;53.468;9.826;2022-09-12T15:18:18;24.30;78.40
44166;DHT22;30476;53.468;9.826;2022-09-12T15:20:45;24.20;78.50
44166;DHT22;30476;53.468;9.826;2022-09-12T15:23:26;24.20;78.60
44166;DHT22;30476;53.468;9.826;2022-09-12T15:25:53;24.20;78.70
44166;DHT22;30476;53.468;9.826;2022-09-12T15:28:21;24.20;79.20
44166;DHT22;30476;53.468;9.826;2022-09-12T15:30:49;24.10;79.20
44166;DHT22;30476;53.468;9.826;2022-09-12T15:33:17;24.10;79.50
44166;DHT22;30476;53.468;9.826;2022-09-12T15:35:43;24.10;79.70
44166;DHT22;30476;53.468;9.826;2022-09-12T15:38:09;24.10;79.70
44166;DHT22;30476;53.468;9.826;2022-09-12T15:40:35;24.10;79.80
44166;DHT22;30476;53.468;9.826;2022-09-12T15:43:01;24.00;80.00
44166;DHT22;30476;53.468;9.826;2022-09-12T15:45:29;24.00;79.80
44166;DHT22;30476;53.468;9.826;2022-09-12T15:47:56;24.00;80.40
44166;DHT22;30476;53.468;9.826;2022-09-12T15:50:22;23.90;80.60
44166;DHT22;30476;53.468;9.826;2022-09-12T15:52:48;23.80;80.20
44166;DHT22;30476;53.468;9.826;2022-09-12T15:55:18;23.80;79.20
44166;DHT22;30476;53.468;9.826;2022-09-12T15:57:44;23.70;79.20
44166;DHT22;30476;53.468;9.826;2022-09-12T16:00:11;23.70;79.50
44166;DHT22;30476;53.468;9.826;2022-09-12T16:02:37;23.70;79.50
44166;DHT22;30476;53.468;9.826;2022-09-12T16:05:04;23.80;79.90
44166;DHT22;30476;53.468;9.826;2022-09-12T16:07:30;23.80;80.30
44166;DHT22;30476;53.468;9.826;2022-09-12T16:09:56;23.70;80.40
44166;DHT22;30476;53.468;9.826;2022-09-12T16:12:22;23.80;80.80
44166;DHT22;30476;53.468;9.826;2022-09-12T16:14:48;23.80;81.00
44166;DHT22;30476;53.468;9.826;2022-09-12T16:17:14;23.70;81.10
44166;DHT22;30476;53.468;9.826;2022-09-12T16:19:39;23.80;81.00
44166;DHT22;30476;53.468;9.826;2022-09-12T16:22:05;23.70;81.40
44166;DHT22;30476;53.468;9.826;2022-09-12T16:24:31;23.70;81.20
44166;DHT22;30476;53.468;9.826;2022-09-12T16:26:57;23.70;81.10
44166;DHT22;30476;53.468;9.826;2022-09-12T16:29:23;23.70;80.90
44166;DHT22;30476;53.468;9.826;2022-09-12T16:31:48;23.60;81.00
44166;DHT22;30476;53.468;9.826;2022-09-12T16:34:14;23.60;81.40
44166;DHT22;30476;53.468;9.826;2022-09-12T16:36:40;23.60;81.80
44166;DHT22;30476;53.468;9.826;2022-09-12T16:39:06;23.50;81.70
44166;DHT22;30476;53.468;9.826;2022-09-12T16:41:31;23.50;81.70
44166;DHT22;30476;53.468;9.826;2022-09-12T16:43:57;23.40;81.90
44166;DHT22;30476;53.468;9.826;2022-09-12T16:46:26;23.40;82.10
44166;DHT22;30476;53.468;9.826;2022-09-12T16:48:56;23.30;82.50
44166;DHT22;30476;53.468;9.826;2022-09-12T16:51:25;23.30;82.90
44166;DHT22;30476;53.468;9.826;2022-09-12T16:53:53;23.20;83.20
44166;DHT22;30476;53.468;9.826;2022-09-12T16:56:20;23.20;83.80
44166;DHT22;30476;53.468;9.826;2022-09-12T16:58:46;23.10;84.20
44166;DHT22;30476;53.468;9.826;2022-09-12T17:01:15;23.10;84.50
44166;DHT22;30476;53.468;9.826;2022-09-12T17:03:41;23.00;84.90
44166;DHT22;30476;53.468;9.826;2022-09-12T17:06:08;23.00;85.10
44166;DHT22;30476;53.468;9.826;2022-09-12T17:08:38;23.00;84.90
44166;DHT22;30476;53.468;9.826;2022-09-12T17:11:07;22.90;84.90
44166;DHT22;30476;53.468;9.826;2022-09-12T17:13:33;22.80;85.20
44166;DHT22;30476;53.468;9.826;2022-09-12T17:15:59;22.80;85.20
44166;DHT22;30476;53.468;9.826;2022-09-12T17:18:29;22.80;85.70
44166;DHT22;30476;53.468;9.826;2022-09-12T17:20:54;22.80;86.40
44166;DHT22;30476;53.468;9.826;2022-09-12T17:23:20;22.70;86.50
44166;DHT22;30476;53.468;9.826;2022-09-12T17:25:47;22.70;87.00
44166;DHT22;30476;53.468;9.826;2022-09-12T17:28:13;22.70;87.50
44166;DHT22;30476;53.468;9.826;2022-09-12T17:30:39;22.60;87.60
44166;DHT22;30476;53.468;9.826;2022-09-12T17:33:06;22.60;87.80
44166;DHT22;30476;53.468;9.826;2022-09-12T17:35:38;22.50;88.10
44166;DHT22;30476;53.468;9.826;2022-09-12T17:38:04;22.50;88.40
44166;DHT22;30476;53.468;9.826;2022-09-12T17:40:30;22.40;88.50
44166;DHT22;30476;53.468;9.826;2022-09-12T17:42:59;22.30;88.40
44166;DHT22;30476;53.468;9.826;2022-09-12T17:45:26;22.30;88.30
44166;DHT22;30476;53.468;9.826;2022-09-12T17:47:53;22.20;88.40
44166;DHT22;30476;53.468;9.826;2022-09-12T17:50:19;22.20;88.80